sensor_id;sensor_type;location;lat;lon;timestamp;pressure;altitude;pressure_sealevel;temperature
68510;BMP180;55512;50.102;19.958;2023-02-21T00:00:52;97983.80;;;10.12
68510;BMP180;55512;50.102;19.958;2023-02-21T00:03:36;97956.20;;;10.10
68510;BMP180;55512;50.102;19.958;2023-02-21T00:06:20;97954.80;;;10.10
68510;BMP180;55512;50.102;19.958;2023-02-21T00:09:05;97946.00;;;10.10
68510;BMP180;55512;50.102;19.958;2023-02-21T00:11:49;97970.20;;;10.06
68510;BMP180;55512;50.102;19.958;2023-02-21T00:14:33;97941.40;;;10.00
68510;BMP180;55512;50.102;19.958;2023-02-21T00:17:17;97953.40;;;10.06
68510;BMP180;55512;50.102;19.958;2023-02-21T00:20:01;97941.40;;;10.02
68510;BMP180;55512;50.102;19.958;2023-02-21T00:22:45;97957.80;;;10.00
68510;BMP180;55512;50.102;19.958;2023-02-21T00:25:29;97944.40;;;10.00
68510;BMP180;55512;50.102;19.958;2023-02-21T00:28:14;97952.60;;;10.00
68510;BMP180;55512;50.102;19.958;2023-02-21T00:30:57;97946.60;;;10.00
68510;BMP180;55512;50.102;19.958;2023-02-21T00:33:42;97943.40;;;10.02
68510;BMP180;55512;50.102;19.958;2023-02-21T00:36:26;97958.20;;;10.00
68510;BMP180;55512;50.102;19.958;2023-02-21T00:39:10;97967.20;;;10.00
68510;BMP180;55512;50.102;19.958;2023-02-21T00:41:54;97952.00;;;10.00
68510;BMP180;55512;50.102;19.958;2023-02-21T00:44:38;97962.20;;;10.00
68510;BMP180;55512;50.102;19.958;2023-02-21T00:47:22;97961.40;;;10.00
68510;BMP180;55512;50.102;19.958;2023-02-21T00:50:06;97943.60;;;10.00
68510;BMP180;55512;50.102;19.958;2023-02-21T00:52:50;97951.80;;;10.00
68510;BMP180;55512;50.102;19.958;2023-02-21T00:55:34;97952.60;;;10.00
68510;BMP180;55512;50.102;19.958;2023-02-21T00:58:22;97939.20;;;10.00
68510;BMP180;55512;50.102;19.958;2023-02-21T01:01:07;97937.40;;;10.00
68510;BMP180;55512;50.102;19.958;2023-02-21T01:03:51;97948.80;;;10.00
68510;BMP180;55512;50.102;19.958;2023-02-21T01:06:35;97942.40;;;10.00
68510;BMP180;55512;50.102;19.958;2023-02-21T01:09:19;97931.60;;;10.00
68510;BMP180;55512;50.102;19.958;2023-02-21T01:12:03;97938.40;;;10.00
68510;BMP180;55512;50.102;19.958;2023-02-21T01:14:47;97928.80;;;10.00
68510;BMP180;55512;50.102;19.958;2023-02-21T01:17:31;97926.60;;;10.00
68510;BMP180;55512;50.102;19.958;2023-02-21T01:20:15;97942.60;;;10.00
68510;BMP180;55512;50.102;19.958;2023-02-21T01:22:59;97920.20;;;10.00
68510;BMP180;55512;50.102;19.958;2023-02-21T01:25:43;97924.60;;;9.98
68510;BMP180;55512;50.102;19.958;2023-02-21T01:28:27;97925.60;;;9.92
68510;BMP180;55512;50.102;19.958;2023-02-21T01:31:19;97925.40;;;9.90
68510;BMP180;55512;50.102;19.958;2023-02-21T01:34:03;97932.60;;;9.90
68510;BMP180;55512;50.102;19.958;2023-02-21T01:36:48;97933.00;;;9.90
68510;BMP180;55512;50.102;19.958;2023-02-21T01:39:31;97930.80;;;9.90
68510;BMP180;55512;50.102;19.958;2023-02-21T01:42:16;97943.60;;;9.90
68510;BMP180;55512;50.102;19.958;2023-02-21T01:48:14;97926.40;;;9.90
68510;BMP180;55512;50.102;19.958;2023-02-21T01:50:59;97925.60;;;9.90
68510;BMP180;55512;50.102;19.958;2023-02-21T01:53:45;97921.80;;;9.88
68510;BMP180;55512;50.102;19.958;2023-02-21T01:56:30;97916.80;;;9.86
68510;BMP180;55512;50.102;19.958;2023-02-21T01:59:17;97918.40;;;9.90
68510;BMP180;55512;50.102;19.958;2023-02-21T02:02:14;97916.00;;;9.90
68510;BMP180;55512;50.102;19.958;2023-02-21T02:05:03;97917.20;;;9.80
68510;BMP180;55512;50.102;19.958;2023-02-21T02:07:48;97910.60;;;9.80
68510;BMP180;55512;50.102;19.958;2023-02-21T02:10:32;97911.20;;;9.80
68510;BMP180;55512;50.102;19.958;2023-02-21T02:16:44;97910.20;;;9.82
68510;BMP180;55512;50.102;19.958;2023-02-21T02:34:44;97912.40;;;9.60
68510;BMP180;55512;50.102;19.958;2023-02-21T02:40:39;97925.40;;;9.50
68510;BMP180;55512;50.102;19.958;2023-02-21T02:43:37;97921.00;;;9.30
68510;BMP180;55512;50.102;19.958;2023-02-21T02:46:15;97922.60;;;9.24
68510;BMP180;55512;50.102;19.958;2023-02-21T02:48:49;97926.60;;;9.12
68510;BMP180;55512;50.102;19.958;2023-02-21T02:51:18;97915.20;;;9.08
68510;BMP180;55512;50.102;19.958;2023-02-21T02:53:43;97915.40;;;9.00
68510;BMP180;55512;50.102;19.958;2023-02-21T02:56:13;97923.40;;;9.00
68510;BMP180;55512;50.102;19.958;2023-02-21T03:10:25;97918.40;;;8.70
68510;BMP180;55512;50.102;19.958;2023-02-21T03:13:17;97921.20;;;8.68
68510;BMP180;55512;50.102;19.958;2023-02-21T03:15:51;97920.00;;;8.60
68510;BMP180;55512;50.102;19.958;2023-02-21T03:18:34;97920.60;;;8.60
68510;BMP180;55512;50.102;19.958;2023-02-21T03:21:07;97926.40;;;8.60
68510;BMP180;55512;50.102;19.958;2023-02-21T03:23:36;97920.80;;;8.54
68510;BMP180;55512;50.102;19.958;2023-02-21T03:26:05;97917.40;;;8.50
68510;BMP180;55512;50.102;19.958;2023-02-21T03:28:35;97915.40;;;8.50
68510;BMP180;55512;50.102;19.958;2023-02-21T03:31:04;97932.20;;;8.50
68510;BMP180;55512;50.102;19.958;2023-02-21T03:33:32;97926.00;;;8.50
68510;BMP180;55512;50.102;19.958;2023-02-21T03:36:08;97928.40;;;8.50
68510;BMP180;55512;50.102;19.958;2023-02-21T03:38:34;97917.00;;;8.44
68510;BMP180;55512;50.102;19.958;2023-02-21T03:41:00;97915.40;;;8.40
68510;BMP180;55512;50.102;19.958;2023-02-21T03:43:25;97915.40;;;8.38
68510;BMP180;55512;50.102;19.958;2023-02-21T03:45:51;97920.20;;;8.40
68510;BMP180;55512;50.102;19.958;2023-02-21T03:48:17;97915.00;;;8.30
68510;BMP180;55512;50.102;19.958;2023-02-21T03:50:42;97914.60;;;8.30
68510;BMP180;55512;50.102;19.958;2023-02-21T03:53:09;97923.40;;;8.30
68510;BMP180;55512;50.102;19.958;2023-02-21T03:55:35;97922.60;;;8.30
68510;BMP180;55512;50.102;19.958;2023-02-21T03:58:00;97915.60;;;8.30
68510;BMP180;55512;50.102;19.958;2023-02-21T04:00:26;97913.60;;;8.30
68510;BMP180;55512;50.102;19.958;2023-02-21T04:02:51;97912.20;;;8.30
68510;BMP180;55512;50.102;19.958;2023-02-21T04:05:17;97911.80;;;8.30
68510;BMP180;55512;50.102;19.958;2023-02-21T04:07:42;97920.60;;;8.30
68510;BMP180;55512;50.102;19.958;2023-02-21T04:10:08;97924.60;;;8.30
68510;BMP180;55512;50.102;19.958;2023-02-21T04:12:33;97922.00;;;8.30
68510;BMP180;55512;50.102;19.958;2023-02-21T04:14:59;97912.00;;;8.26
68510;BMP180;55512;50.102;19.958;2023-02-21T04:17:24;97913.00;;;8.30
68510;BMP180;55512;50.102;19.958;2023-02-21T04:19:51;97917.80;;;8.30
68510;BMP180;55512;50.102;19.958;2023-02-21T04:22:16;97916.00;;;8.30
68510;BMP180;55512;50.102;19.958;2023-02-21T04:24:42;97914.00;;;8.30
68510;BMP180;55512;50.102;19.958;2023-02-21T04:27:07;97916.60;;;8.30
68510;BMP180;55512;50.102;19.958;2023-02-21T04:29:33;97913.40;;;8.30
68510;BMP180;55512;50.102;19.958;2023-02-21T04:31:59;97925.20;;;8.30
68510;BMP180;55512;50.102;19.958;2023-02-21T04:34:24;97918.00;;;8.30
68510;BMP180;55512;50.102;19.958;2023-02-21T04:36:50;97925.60;;;8.30
68510;BMP180;55512;50.102;19.958;2023-02-21T04:39:17;97928.60;;;8.30
68510;BMP180;55512;50.102;19.958;2023-02-21T04:41:42;97920.60;;;8.26
68510;BMP180;55512;50.102;19.958;2023-02-21T04:44:08;97932.40;;;8.20
68510;BMP180;55512;50.102;19.958;2023-02-21T04:46:34;97918.80;;;8.20
68510;BMP180;55512;50.102;19.958;2023-02-21T04:48:59;97918.20;;;8.20
68510;BMP180;55512;50.102;19.958;2023-02-21T04:51:25;97919.00;;;8.20
68510;BMP180;55512;50.102;19.958;2023-02-21T04:53:53;97922.20;;;8.20
68510;BMP180;55512;50.102;19.958;2023-02-21T04:56:23;97928.20;;;8.20
68510;BMP180;55512;50.102;19.958;2023-02-21T04:58:50;97926.40;;;8.18
68510;BMP180;55512;50.102;19.958;2023-02-21T05:01:17;97918.60;;;8.10
68510;BMP180;55512;50.102;19.958;2023-02-21T05:03:43;97923.80;;;8.10
68510;BMP180;55512;50.102;19.958;2023-02-21T05:06:09;97920.60;;;8.10
68510;BMP180;55512;50.102;19.958;2023-02-21T05:08:35;97928.80;;;8.10
68510;BMP180;55512;50.102;19.958;2023-02-21T05:11:01;97913.60;;;8.10
68510;BMP180;55512;50.102;19.958;2023-02-21T05:13:27;97910.20;;;8.10
68510;BMP180;55512;50.102;19.958;2023-02-21T05:15:52;97909.40;;;8.00
68510;BMP180;55512;50.102;19.958;2023-02-21T05:18:18;97907.60;;;8.02
68510;BMP180;55512;50.102;19.958;2023-02-21T05:20:50;97912.20;;;8.10
68510;BMP180;55512;50.102;19.958;2023-02-21T05:23:17;97912.80;;;8.10
68510;BMP180;55512;50.102;19.958;2023-02-21T05:26:03;97904.80;;;8.10
68510;BMP180;55512;50.102;19.958;2023-02-21T05:28:28;97903.60;;;8.10
68510;BMP180;55512;50.102;19.958;2023-02-21T05:30:54;97904.40;;;8.10
68510;BMP180;55512;50.102;19.958;2023-02-21T05:33:20;97898.00;;;8.10
68510;BMP180;55512;50.102;19.958;2023-02-21T05:35:46;97882.40;;;8.10
68510;BMP180;55512;50.102;19.958;2023-02-21T05:38:14;97891.00;;;8.10
68510;BMP180;55512;50.102;19.958;2023-02-21T05:40:40;97892.20;;;8.10
68510;BMP180;55512;50.102;19.958;2023-02-21T05:43:05;97894.60;;;8.10
68510;BMP180;55512;50.102;19.958;2023-02-21T05:45:31;97894.40;;;8.10
68510;BMP180;55512;50.102;19.958;2023-02-21T05:47:56;97895.00;;;8.00
68510;BMP180;55512;50.102;19.958;2023-02-21T05:50:25;97892.20;;;8.00
68510;BMP180;55512;50.102;19.958;2023-02-21T05:52:51;97890.20;;;8.00
68510;BMP180;55512;50.102;19.958;2023-02-21T05:55:17;97888.80;;;8.00
68510;BMP180;55512;50.102;19.958;2023-02-21T05:57:43;97883.60;;;8.00
68510;BMP180;55512;50.102;19.958;2023-02-21T06:00:19;97889.40;;;8.04
68510;BMP180;55512;50.102;19.958;2023-02-21T06:02:45;97900.80;;;8.10
68510;BMP180;55512;50.102;19.958;2023-02-21T06:05:12;97898.40;;;8.00
68510;BMP180;55512;50.102;19.958;2023-02-21T06:07:37;97897.40;;;8.00
68510;BMP180;55512;50.102;19.958;2023-02-21T06:10:04;97907.00;;;8.00
68510;BMP180;55512;50.102;19.958;2023-02-21T06:12:30;97907.40;;;8.00
68510;BMP180;55512;50.102;19.958;2023-02-21T06:14:55;97904.00;;;8.00
68510;BMP180;55512;50.102;19.958;2023-02-21T06:17:21;97903.60;;;8.00
68510;BMP180;55512;50.102;19.958;2023-02-21T06:19:46;97909.80;;;8.00
68510;BMP180;55512;50.102;19.958;2023-02-21T06:22:12;97919.40;;;8.00
68510;BMP180;55512;50.102;19.958;2023-02-21T06:24:38;97925.80;;;8.00
68510;BMP180;55512;50.102;19.958;2023-02-21T06:27:03;97924.00;;;8.00
68510;BMP180;55512;50.102;19.958;2023-02-21T06:29:29;97928.20;;;8.00
68510;BMP180;55512;50.102;19.958;2023-02-21T06:31:58;97939.60;;;8.00
68510;BMP180;55512;50.102;19.958;2023-02-21T06:34:25;97932.00;;;8.00
68510;BMP180;55512;50.102;19.958;2023-02-21T06:36:52;97937.20;;;8.00
68510;BMP180;55512;50.102;19.958;2023-02-21T06:39:18;97960.00;;;8.00
68510;BMP180;55512;50.102;19.958;2023-02-21T06:41:43;97953.40;;;8.00
68510;BMP180;55512;50.102;19.958;2023-02-21T06:44:10;97942.40;;;8.00
68510;BMP180;55512;50.102;19.958;2023-02-21T06:46:36;97951.40;;;8.00
68510;BMP180;55512;50.102;19.958;2023-02-21T06:49:03;97956.20;;;8.00
68510;BMP180;55512;50.102;19.958;2023-02-21T06:51:38;97949.60;;;8.02
68510;BMP180;55512;50.102;19.958;2023-02-21T06:54:05;97950.80;;;8.10
68510;BMP180;55512;50.102;19.958;2023-02-21T06:56:32;97938.80;;;8.10
68510;BMP180;55512;50.102;19.958;2023-02-21T06:58:58;97939.80;;;8.10
68510;BMP180;55512;50.102;19.958;2023-02-21T07:01:29;97945.40;;;8.14
68510;BMP180;55512;50.102;19.958;2023-02-21T07:03:57;97943.20;;;8.10
68510;BMP180;55512;50.102;19.958;2023-02-21T07:06:23;97941.40;;;8.10
68510;BMP180;55512;50.102;19.958;2023-02-21T07:08:49;97946.40;;;8.10
68510;BMP180;55512;50.102;19.958;2023-02-21T07:11:16;97947.20;;;8.10
68510;BMP180;55512;50.102;19.958;2023-02-21T07:13:49;97937.00;;;8.10
68510;BMP180;55512;50.102;19.958;2023-02-21T07:16:15;97939.80;;;8.10
68510;BMP180;55512;50.102;19.958;2023-02-21T07:18:43;97948.60;;;8.10
68510;BMP180;55512;50.102;19.958;2023-02-21T07:21:10;97953.00;;;8.10
68510;BMP180;55512;50.102;19.958;2023-02-21T07:23:36;97977.60;;;8.10
68510;BMP180;55512;50.102;19.958;2023-02-21T07:26:01;97967.00;;;8.10
68510;BMP180;55512;50.102;19.958;2023-02-21T07:28:26;97963.80;;;8.12
68510;BMP180;55512;50.102;19.958;2023-02-21T07:30:52;97968.00;;;8.20
68510;BMP180;55512;50.102;19.958;2023-02-21T07:33:17;97970.20;;;8.20
68510;BMP180;55512;50.102;19.958;2023-02-21T07:35:43;97968.80;;;8.20
68510;BMP180;55512;50.102;19.958;2023-02-21T07:38:21;97983.00;;;8.24
68510;BMP180;55512;50.102;19.958;2023-02-21T07:40:48;97964.60;;;8.30
68510;BMP180;55512;50.102;19.958;2023-02-21T07:43:14;97957.20;;;8.30
68510;BMP180;55512;50.102;19.958;2023-02-21T07:45:39;97961.40;;;8.30
68510;BMP180;55512;50.102;19.958;2023-02-21T07:48:05;97958.20;;;8.40
68510;BMP180;55512;50.102;19.958;2023-02-21T07:50:30;97956.60;;;8.40
68510;BMP180;55512;50.102;19.958;2023-02-21T07:52:56;97952.40;;;8.50
68510;BMP180;55512;50.102;19.958;2023-02-21T07:55:24;97958.00;;;8.50
68510;BMP180;55512;50.102;19.958;2023-02-21T07:57:50;97955.60;;;8.50
68510;BMP180;55512;50.102;19.958;2023-02-21T08:00:15;97957.20;;;8.60
68510;BMP180;55512;50.102;19.958;2023-02-21T08:02:46;97956.60;;;8.60
68510;BMP180;55512;50.102;19.958;2023-02-21T08:05:14;97959.20;;;8.60
68510;BMP180;55512;50.102;19.958;2023-02-21T08:07:40;97979.80;;;8.60
68510;BMP180;55512;50.102;19.958;2023-02-21T08:10:06;97966.20;;;8.60
68510;BMP180;55512;50.102;19.958;2023-02-21T08:12:32;97963.60;;;8.60
68510;BMP180;55512;50.102;19.958;2023-02-21T08:14:57;97978.80;;;8.60
68510;BMP180;55512;50.102;19.958;2023-02-21T08:17:23;97992.60;;;8.60
68510;BMP180;55512;50.102;19.958;2023-02-21T08:19:49;97992.40;;;8.60
68510;BMP180;55512;50.102;19.958;2023-02-21T08:22:14;97997.00;;;8.60
68510;BMP180;55512;50.102;19.958;2023-02-21T08:24:39;98008.20;;;8.54
68510;BMP180;55512;50.102;19.958;2023-02-21T08:27:05;97991.20;;;8.56
68510;BMP180;55512;50.102;19.958;2023-02-21T08:29:31;97989.20;;;8.60
68510;BMP180;55512;50.102;19.958;2023-02-21T08:31:56;98005.60;;;8.60
68510;BMP180;55512;50.102;19.958;2023-02-21T08:34:21;97998.00;;;8.60
68510;BMP180;55512;50.102;19.958;2023-02-21T08:36:49;98003.20;;;8.60
68510;BMP180;55512;50.102;19.958;2023-02-21T08:39:15;98009.60;;;8.70
68510;BMP180;55512;50.102;19.958;2023-02-21T08:41:44;98001.00;;;8.70
68510;BMP180;55512;50.102;19.958;2023-02-21T08:44:14;98007.40;;;8.72
68510;BMP180;55512;50.102;19.958;2023-02-21T08:46:41;98019.60;;;8.80
68510;BMP180;55512;50.102;19.958;2023-02-21T08:49:07;98007.80;;;8.80
68510;BMP180;55512;50.102;19.958;2023-02-21T08:51:35;98003.40;;;8.80
68510;BMP180;55512;50.102;19.958;2023-02-21T08:54:01;98003.80;;;8.80
68510;BMP180;55512;50.102;19.958;2023-02-21T08:56:28;98004.20;;;8.86
68510;BMP180;55512;50.102;19.958;2023-02-21T08:58:55;98014.40;;;8.90
68510;BMP180;55512;50.102;19.958;2023-02-21T09:01:23;98041.00;;;8.90
68510;BMP180;55512;50.102;19.958;2023-02-21T09:03:49;98012.80;;;8.90
68510;BMP180;55512;50.102;19.958;2023-02-21T09:06:16;98031.00;;;8.92
68510;BMP180;55512;50.102;19.958;2023-02-21T09:08:41;98028.00;;;9.00
68510;BMP180;55512;50.102;19.958;2023-02-21T09:11:07;98028.20;;;9.00
68510;BMP180;55512;50.102;19.958;2023-02-21T09:13:33;98030.00;;;9.08
68510;BMP180;55512;50.102;19.958;2023-02-21T09:16:01;98049.80;;;9.10
68510;BMP180;55512;50.102;19.958;2023-02-21T09:18:30;98026.20;;;9.18
68510;BMP180;55512;50.102;19.958;2023-02-21T09:20:56;98033.80;;;9.20
68510;BMP180;55512;50.102;19.958;2023-02-21T09:23:27;98055.80;;;9.20
68510;BMP180;55512;50.102;19.958;2023-02-21T09:25:54;98040.00;;;9.20
68510;BMP180;55512;50.102;19.958;2023-02-21T09:28:19;98039.60;;;9.30
68510;BMP180;55512;50.102;19.958;2023-02-21T09:30:46;98039.00;;;9.34
68510;BMP180;55512;50.102;19.958;2023-02-21T09:33:13;98052.40;;;9.30
68510;BMP180;55512;50.102;19.958;2023-02-21T09:35:38;98056.80;;;9.40
68510;BMP180;55512;50.102;19.958;2023-02-21T09:38:06;98058.60;;;9.40
68510;BMP180;55512;50.102;19.958;2023-02-21T09:43:12;98051.20;;;9.50
68510;BMP180;55512;50.102;19.958;2023-02-21T09:45:39;98044.80;;;9.60
68510;BMP180;55512;50.102;19.958;2023-02-21T09:48:19;98047.60;;;9.60
68510;BMP180;55512;50.102;19.958;2023-02-21T09:51:00;98047.40;;;9.60
68510;BMP180;55512;50.102;19.958;2023-02-21T09:53:33;98039.60;;;9.68
68510;BMP180;55512;50.102;19.958;2023-02-21T09:56:06;98042.80;;;9.70
68510;BMP180;55512;50.102;19.958;2023-02-21T09:58:34;98069.60;;;9.68
68510;BMP180;55512;50.102;19.958;2023-02-21T10:01:09;98078.00;;;9.60
68510;BMP180;55512;50.102;19.958;2023-02-21T10:06:56;98077.00;;;9.60
68510;BMP180;55512;50.102;19.958;2023-02-21T10:09:51;98108.20;;;9.70
68510;BMP180;55512;50.102;19.958;2023-02-21T10:12:26;98075.20;;;9.70
68510;BMP180;55512;50.102;19.958;2023-02-21T10:15:18;98074.20;;;9.80
68510;BMP180;55512;50.102;19.958;2023-02-21T10:18:01;98068.80;;;9.90
68510;BMP180;55512;50.102;19.958;2023-02-21T10:20:39;98080.20;;;9.90
68510;BMP180;55512;50.102;19.958;2023-02-21T10:23:31;98084.80;;;10.00
68510;BMP180;55512;50.102;19.958;2023-02-21T10:26:05;98074.40;;;10.02
68510;BMP180;55512;50.102;19.958;2023-02-21T10:28:34;98092.60;;;10.10
68510;BMP180;55512;50.102;19.958;2023-02-21T10:31:08;98086.40;;;10.20
68510;BMP180;55512;50.102;19.958;2023-02-21T10:33:37;98105.60;;;10.30
68510;BMP180;55512;50.102;19.958;2023-02-21T10:36:11;98083.00;;;10.34
68510;BMP180;55512;50.102;19.958;2023-02-21T10:38:40;98086.60;;;10.40
68510;BMP180;55512;50.102;19.958;2023-02-21T10:41:07;98075.20;;;10.50
68510;BMP180;55512;50.102;19.958;2023-02-21T10:43:38;98070.20;;;10.60
68510;BMP180;55512;50.102;19.958;2023-02-21T10:46:30;98084.20;;;10.70
68510;BMP180;55512;50.102;19.958;2023-02-21T10:49:48;98075.40;;;10.80
68510;BMP180;55512;50.102;19.958;2023-02-21T10:52:18;98091.60;;;10.90
68510;BMP180;55512;50.102;19.958;2023-02-21T10:55:04;98062.60;;;10.90
68510;BMP180;55512;50.102;19.958;2023-02-21T10:57:40;98118.60;;;10.90
68510;BMP180;55512;50.102;19.958;2023-02-21T11:00:08;98108.80;;;10.90
68510;BMP180;55512;50.102;19.958;2023-02-21T11:02:38;98086.80;;;10.90
68510;BMP180;55512;50.102;19.958;2023-02-21T11:05:15;98096.40;;;10.90
68510;BMP180;55512;50.102;19.958;2023-02-21T11:08:05;98101.40;;;10.80
68510;BMP180;55512;50.102;19.958;2023-02-21T11:10:42;98108.40;;;10.68
68510;BMP180;55512;50.102;19.958;2023-02-21T11:13:16;98123.40;;;10.50
68510;BMP180;55512;50.102;19.958;2023-02-21T11:15:44;98133.40;;;10.42
68510;BMP180;55512;50.102;19.958;2023-02-21T11:18:22;98121.20;;;10.24
68510;BMP180;55512;50.102;19.958;2023-02-21T11:20:51;98134.40;;;10.10
68510;BMP180;55512;50.102;19.958;2023-02-21T11:23:29;98116.40;;;10.00
68510;BMP180;55512;50.102;19.958;2023-02-21T11:26:05;98139.40;;;9.84
68510;BMP180;55512;50.102;19.958;2023-02-21T11:28:37;98153.80;;;9.70
68510;BMP180;55512;50.102;19.958;2023-02-21T11:31:27;98138.20;;;9.62
68510;BMP180;55512;50.102;19.958;2023-02-21T11:34:03;98143.60;;;9.50
68510;BMP180;55512;50.102;19.958;2023-02-21T11:36:37;98142.80;;;9.50
68510;BMP180;55512;50.102;19.958;2023-02-21T11:39:23;98140.00;;;9.40
68510;BMP180;55512;50.102;19.958;2023-02-21T11:42:04;98125.80;;;9.30
68510;BMP180;55512;50.102;19.958;2023-02-21T11:45:08;98132.00;;;9.30
68510;BMP180;55512;50.102;19.958;2023-02-21T11:47:45;98125.60;;;9.20
68510;BMP180;55512;50.102;19.958;2023-02-21T11:50:49;98129.00;;;9.20
68510;BMP180;55512;50.102;19.958;2023-02-21T11:53:41;98154.00;;;9.10
68510;BMP180;55512;50.102;19.958;2023-02-21T11:59:19;98122.40;;;9.10
68510;BMP180;55512;50.102;19.958;2023-02-21T12:08:01;98143.80;;;9.20
68510;BMP180;55512;50.102;19.958;2023-02-21T12:16:44;98129.60;;;9.30
68510;BMP180;55512;50.102;19.958;2023-02-21T12:25:16;98125.80;;;9.60
68510;BMP180;55512;50.102;19.958;2023-02-21T12:28:03;98124.60;;;9.70
68510;BMP180;55512;50.102;19.958;2023-02-21T12:36:25;98141.40;;;9.90
68510;BMP180;55512;50.102;19.958;2023-02-21T12:50:43;98134.80;;;10.52
68510;BMP180;55512;50.102;19.958;2023-02-21T12:56:11;98127.00;;;10.80
68510;BMP180;55512;50.102;19.958;2023-02-21T12:58:55;98161.00;;;10.90
68510;BMP180;55512;50.102;19.958;2023-02-21T13:01:29;98133.00;;;10.90
68510;BMP180;55512;50.102;19.958;2023-02-21T13:04:19;98139.00;;;11.00
68510;BMP180;55512;50.102;19.958;2023-02-21T13:06:58;98129.40;;;11.00
68510;BMP180;55512;50.102;19.958;2023-02-21T13:09:38;98139.20;;;11.10
68510;BMP180;55512;50.102;19.958;2023-02-21T13:12:15;98141.40;;;11.10
68510;BMP180;55512;50.102;19.958;2023-02-21T13:14:48;98112.00;;;11.20
68510;BMP180;55512;50.102;19.958;2023-02-21T13:17:16;98125.60;;;11.20
68510;BMP180;55512;50.102;19.958;2023-02-21T13:19:48;98114.40;;;11.30
68510;BMP180;55512;50.102;19.958;2023-02-21T13:26:15;98123.60;;;11.50
68510;BMP180;55512;50.102;19.958;2023-02-21T13:28:44;98166.00;;;11.58
68510;BMP180;55512;50.102;19.958;2023-02-21T13:31:41;98119.40;;;11.60
68510;BMP180;55512;50.102;19.958;2023-02-21T13:34:09;98116.40;;;11.60
68510;BMP180;55512;50.102;19.958;2023-02-21T13:36:41;98122.80;;;11.68
68510;BMP180;55512;50.102;19.958;2023-02-21T13:41:37;98113.00;;;11.82
68510;BMP180;55512;50.102;19.958;2023-02-21T13:44:27;98138.40;;;11.90
68510;BMP180;55512;50.102;19.958;2023-02-21T13:47:11;98132.20;;;11.90
68510;BMP180;55512;50.102;19.958;2023-02-21T13:57:51;98147.20;;;11.80
68510;BMP180;55512;50.102;19.958;2023-02-21T14:03:47;98141.40;;;11.60
68510;BMP180;55512;50.102;19.958;2023-02-21T14:11:17;98146.00;;;11.40
68510;BMP180;55512;50.102;19.958;2023-02-21T14:13:51;98148.00;;;11.38
68510;BMP180;55512;50.102;19.958;2023-02-21T14:19:49;98157.20;;;11.20
68510;BMP180;55512;50.102;19.958;2023-02-21T14:22:23;98153.20;;;11.10
68510;BMP180;55512;50.102;19.958;2023-02-21T14:25:06;98164.60;;;11.00
68510;BMP180;55512;50.102;19.958;2023-02-21T14:27:36;98156.60;;;10.98
68510;BMP180;55512;50.102;19.958;2023-02-21T14:32:44;98144.80;;;11.00
68510;BMP180;55512;50.102;19.958;2023-02-21T14:35:37;98166.60;;;11.10
68510;BMP180;55512;50.102;19.958;2023-02-21T14:38:21;98172.60;;;11.08
68510;BMP180;55512;50.102;19.958;2023-02-21T14:41:25;98174.40;;;11.00
68510;BMP180;55512;50.102;19.958;2023-02-21T14:44:18;98183.40;;;11.00
68510;BMP180;55512;50.102;19.958;2023-02-21T14:50:16;98172.00;;;11.82
68510;BMP180;55512;50.102;19.958;2023-02-21T15:01:33;98206.40;;;18.32
68510;BMP180;55512;50.102;19.958;2023-02-21T15:04:33;98209.40;;;19.44
68510;BMP180;55512;50.102;19.958;2023-02-21T15:07:09;98215.40;;;18.42
68510;BMP180;55512;50.102;19.958;2023-02-21T15:09:36;98208.60;;;17.24
68510;BMP180;55512;50.102;19.958;2023-02-21T15:12:09;98215.80;;;16.24
68510;BMP180;55512;50.102;19.958;2023-02-21T15:14:49;98198.80;;;15.36
68510;BMP180;55512;50.102;19.958;2023-02-21T15:17:23;98206.00;;;14.76
68510;BMP180;55512;50.102;19.958;2023-02-21T15:20:22;98204.60;;;14.48
68510;BMP180;55512;50.102;19.958;2023-02-21T15:22:56;98201.40;;;15.20
68510;BMP180;55512;50.102;19.958;2023-02-21T15:25:23;98205.40;;;16.80
68510;BMP180;55512;50.102;19.958;2023-02-21T15:30:22;98204.40;;;17.90
68510;BMP180;55512;50.102;19.958;2023-02-21T15:33:16;98202.40;;;17.48
68510;BMP180;55512;50.102;19.958;2023-02-21T15:35:49;98200.00;;;16.82
68510;BMP180;55512;50.102;19.958;2023-02-21T15:43:57;98224.00;;;14.80
68510;BMP180;55512;50.102;19.958;2023-02-21T15:46:30;98215.60;;;14.22
68510;BMP180;55512;50.102;19.958;2023-02-21T15:49:01;98227.40;;;13.68
68510;BMP180;55512;50.102;19.958;2023-02-21T15:51:28;98231.20;;;13.08
68510;BMP180;55512;50.102;19.958;2023-02-21T15:56:41;98222.80;;;12.24
68510;BMP180;55512;50.102;19.958;2023-02-21T15:59:19;98218.40;;;12.00
68510;BMP180;55512;50.102;19.958;2023-02-21T16:04:42;98219.80;;;11.40
68510;BMP180;55512;50.102;19.958;2023-02-21T16:07:28;98235.20;;;11.20
68510;BMP180;55512;50.102;19.958;2023-02-21T16:10:06;98228.80;;;11.00
68510;BMP180;55512;50.102;19.958;2023-02-21T16:12:37;98227.80;;;10.90
68510;BMP180;55512;50.102;19.958;2023-02-21T16:15:30;98226.40;;;10.76
68510;BMP180;55512;50.102;19.958;2023-02-21T16:18:01;98236.80;;;10.60
68510;BMP180;55512;50.102;19.958;2023-02-21T16:20:41;98231.40;;;10.50
68510;BMP180;55512;50.102;19.958;2023-02-21T16:23:25;98235.80;;;10.40
68510;BMP180;55512;50.102;19.958;2023-02-21T16:28:29;98230.40;;;10.18
68510;BMP180;55512;50.102;19.958;2023-02-21T16:31:01;98253.20;;;10.10
68510;BMP180;55512;50.102;19.958;2023-02-21T16:33:28;98246.80;;;10.00
68510;BMP180;55512;50.102;19.958;2023-02-21T16:35:55;98262.80;;;10.00
68510;BMP180;55512;50.102;19.958;2023-02-21T16:38:22;98270.00;;;9.90
68510;BMP180;55512;50.102;19.958;2023-02-21T16:40:48;98250.60;;;9.90
68510;BMP180;55512;50.102;19.958;2023-02-21T16:43:24;98252.40;;;9.80
68510;BMP180;55512;50.102;19.958;2023-02-21T16:45:53;98260.40;;;9.80
68510;BMP180;55512;50.102;19.958;2023-02-21T16:48:23;98252.80;;;9.80
68510;BMP180;55512;50.102;19.958;2023-02-21T16:50:51;98262.80;;;9.78
68510;BMP180;55512;50.102;19.958;2023-02-21T16:53:18;98268.80;;;9.70
68510;BMP180;55512;50.102;19.958;2023-02-21T16:55:45;98267.40;;;9.64
68510;BMP180;55512;50.102;19.958;2023-02-21T16:58:31;98282.40;;;9.60
68510;BMP180;55512;50.102;19.958;2023-02-21T17:01:11;98288.40;;;9.58